createdAt,value
2022-08-30T00:00:54.994Z,17.96
2022-08-30T00:01:56.563Z,17.92
2022-08-30T00:03:00.838Z,17.92
2022-08-30T00:04:03.197Z,17.89
2022-08-30T00:05:05.183Z,17.86
2022-08-30T00:06:09.551Z,17.79
2022-08-30T00:07:11.187Z,17.79
2022-08-30T00:08:13.385Z,17.79
2022-08-30T00:09:15.300Z,17.76
2022-08-30T00:10:17.187Z,17.67
2022-08-30T00:11:23.435Z,17.72
2022-08-30T00:12:25.363Z,17.69
2022-08-30T00:13:27.239Z,17.60
2022-08-30T00:14:28.780Z,17.62
2022-08-30T00:15:30.523Z,17.56
2022-08-30T00:16:32.126Z,17.61
2022-08-30T00:17:33.725Z,17.50
2022-08-30T00:18:36.793Z,17.56
2022-08-30T00:19:38.543Z,17.34
2022-08-30T00:20:40.156Z,17.50
2022-08-30T00:21:41.629Z,17.47
2022-08-30T00:22:43.609Z,17.42
2022-08-30T00:23:45.591Z,17.21
2022-08-30T00:24:47.133Z,17.40
2022-08-30T00:25:48.604Z,17.39
2022-08-30T00:26:50.131Z,17.38
2022-08-30T00:27:52.102Z,17.35
2022-08-30T00:28:53.635Z,17.31
2022-08-30T00:29:55.827Z,17.27
2022-08-30T00:30:57.899Z,17.25
2022-08-30T00:31:59.570Z,17.23
2022-08-30T00:33:01.095Z,17.25
2022-08-30T00:34:02.712Z,17.25
2022-08-30T00:35:06.697Z,17.25
2022-08-30T00:36:08.201Z,17.26
2022-08-30T00:37:10.142Z,17.24
2022-08-30T00:38:13.006Z,17.14
2022-08-30T00:39:14.764Z,17.24
2022-08-30T00:40:17.122Z,17.24
2022-08-30T00:41:18.794Z,17.22
2022-08-30T00:42:21.353Z,17.22
2022-08-30T00:43:27.912Z,17.21
2022-08-30T00:44:29.925Z,17.20
2022-08-30T00:45:35.505Z,17.18
2022-08-30T00:46:37.385Z,17.18
2022-08-30T00:47:39.051Z,17.18
2022-08-30T00:48:45.153Z,17.21
2022-08-30T00:49:50.945Z,17.19
2022-08-30T00:50:57.641Z,17.23
2022-08-30T00:52:00.313Z,17.23
2022-08-30T00:53:05.107Z,17.24
2022-08-30T00:54:07.058Z,17.23
2022-08-30T00:55:09.900Z,17.22
2022-08-30T00:56:11.932Z,17.21
2022-08-30T00:57:14.933Z,17.21
2022-08-30T00:58:21.732Z,17.06
2022-08-30T00:59:24.562Z,17.18
2022-08-30T01:00:26.698Z,17.18
2022-08-30T01:01:30.468Z,17.05
2022-08-30T01:02:35.757Z,17.15
2022-08-30T01:03:38.722Z,17.15
2022-08-30T01:04:42.946Z,17.15
2022-08-30T01:05:45.601Z,17.15
2022-08-30T01:06:47.187Z,17.14
2022-08-30T01:07:48.683Z,17.15
2022-08-30T01:08:50.192Z,17.10
2022-08-30T01:09:51.914Z,17.00
2022-08-30T01:10:54.780Z,17.08
2022-08-30T01:11:56.615Z,17.08
2022-08-30T01:12:59.248Z,17.07
2022-08-30T01:14:03.003Z,17.02
2022-08-30T01:15:06.493Z,16.98
2022-08-30T01:16:08.556Z,16.98
2022-08-30T01:17:11.142Z,16.99
2022-08-30T01:18:17.352Z,16.96
2022-08-30T01:19:34.471Z,16.93
2022-08-30T01:20:43.571Z,16.89
2022-08-30T01:21:54.513Z,16.88
2022-08-30T01:22:59.243Z,16.87
2022-08-30T01:24:02.057Z,16.90
2022-08-30T01:25:08.159Z,16.89
2022-08-30T01:26:11.047Z,16.88
2022-08-30T01:27:12.529Z,16.81
2022-08-30T01:28:20.624Z,16.84
2022-08-30T01:29:25.773Z,16.82
2022-08-30T01:30:29.159Z,16.66
2022-08-30T01:31:30.828Z,16.79
2022-08-30T01:32:39.277Z,16.80
2022-08-30T01:33:40.925Z,16.77
2022-08-30T01:34:43.162Z,16.76
2022-08-30T01:35:48.852Z,16.75
2022-08-30T01:36:50.516Z,16.73
2022-08-30T01:37:52.108Z,16.70
2022-08-30T01:38:56.804Z,16.68
2022-08-30T01:39:58.483Z,16.69
2022-08-30T01:41:09.690Z,16.71
2022-08-30T01:42:11.196Z,16.61
2022-08-30T01:43:15.943Z,16.68
2022-08-30T01:44:17.706Z,16.61
2022-08-30T01:45:19.289Z,16.64
2022-08-30T01:46:24.376Z,16.64
2022-08-30T01:47:26.085Z,16.63
2022-08-30T01:48:31.229Z,16.57
2022-08-30T01:49:32.920Z,16.58
2022-08-30T01:50:34.678Z,16.63
2022-08-30T01:51:38.874Z,16.65
2022-08-30T01:52:40.511Z,16.52
2022-08-30T01:53:44.135Z,16.64
2022-08-30T01:54:46.446Z,16.64
2022-08-30T01:55:48.086Z,16.56
2022-08-30T01:56:49.655Z,16.69
2022-08-30T01:57:51.158Z,16.72
2022-08-30T01:58:53.491Z,16.73
2022-08-30T01:59:55.315Z,16.74
2022-08-30T02:00:57.523Z,16.57
2022-08-30T02:01:59.568Z,16.74
2022-08-30T02:03:01.173Z,16.73
2022-08-30T02:04:03.826Z,16.74
2022-08-30T02:05:06.997Z,16.77
2022-08-30T02:06:12.727Z,16.78
2022-08-30T02:07:14.669Z,16.78
2022-08-30T02:08:18.672Z,16.74
2022-08-30T02:09:20.860Z,16.77
2022-08-30T02:10:22.724Z,16.81
2022-08-30T02:11:24.304Z,16.78
2022-08-30T02:12:25.965Z,16.83
2022-08-30T02:13:27.805Z,16.79
2022-08-30T02:14:29.265Z,16.84
2022-08-30T02:15:30.841Z,16.85
2022-08-30T02:16:37.661Z,16.87
2022-08-30T02:17:41.644Z,16.92
2022-08-30T02:18:43.327Z,16.94
2022-08-30T02:19:45.591Z,16.94
2022-08-30T02:20:47.233Z,16.98
2022-08-30T02:21:48.907Z,17.00
2022-08-30T02:22:50.823Z,17.02
2022-08-30T02:23:52.605Z,17.02
2022-08-30T02:24:54.161Z,17.02
2022-08-30T02:25:55.788Z,17.05
2022-08-30T02:26:57.509Z,17.00
2022-08-30T02:27:59.133Z,17.10
2022-08-30T02:29:00.721Z,17.11
2022-08-30T02:30:02.431Z,17.13
2022-08-30T02:31:04.603Z,17.14
2022-08-30T02:32:06.260Z,17.07
2022-08-30T02:33:07.789Z,17.16
2022-08-30T02:34:09.517Z,17.12
2022-08-30T02:35:11.074Z,17.08
2022-08-30T02:36:13.581Z,17.17
2022-08-30T02:37:15.661Z,17.17
2022-08-30T02:38:19.939Z,17.16
2022-08-30T02:39:24.101Z,17.04
2022-08-30T02:40:25.881Z,17.17
2022-08-30T02:41:27.428Z,17.17
2022-08-30T02:42:29.045Z,17.16
2022-08-30T02:43:30.673Z,17.16
2022-08-30T02:44:32.362Z,17.10
2022-08-30T02:45:33.964Z,17.09
2022-08-30T02:46:36.646Z,16.96
2022-08-30T02:47:38.161Z,17.14
2022-08-30T02:48:39.772Z,17.01
2022-08-30T02:49:41.357Z,17.13
2022-08-30T02:50:45.533Z,16.91
2022-08-30T02:51:47.085Z,17.12
2022-08-30T02:52:48.789Z,16.94
2022-08-30T02:53:50.496Z,17.19
2022-08-30T02:54:52.069Z,17.08
2022-08-30T02:55:53.611Z,17.20
2022-08-30T02:56:56.289Z,17.31
2022-08-30T02:57:57.912Z,17.33
2022-08-30T02:58:59.538Z,17.24
2022-08-30T03:00:01.709Z,17.44
2022-08-30T03:01:05.050Z,17.49
2022-08-30T03:02:06.672Z,17.35
2022-08-30T03:03:08.445Z,17.58
2022-08-30T03:04:10.852Z,17.60
2022-08-30T03:05:15.094Z,17.58
2022-08-30T03:06:17.038Z,17.62
2022-08-30T03:07:19.657Z,17.67
2022-08-30T03:08:22.161Z,17.57
2022-08-30T03:09:23.804Z,17.51
2022-08-30T03:10:27.607Z,17.69
2022-08-30T03:11:29.475Z,17.71
2022-08-30T03:12:32.531Z,17.70
2022-08-30T03:13:36.027Z,17.69
2022-08-30T03:14:38.990Z,17.67
2022-08-30T03:15:41.055Z,17.46
2022-08-30T03:16:42.670Z,17.53
2022-08-30T03:17:44.218Z,17.60
2022-08-30T03:18:45.691Z,17.48
2022-08-30T03:19:47.457Z,17.59
2022-08-30T03:20:54.637Z,17.50
2022-08-30T03:21:56.610Z,17.52
2022-08-30T03:22:58.324Z,17.47
2022-08-30T03:23:59.802Z,17.44
2022-08-30T03:25:01.750Z,17.29
2022-08-30T03:26:03.688Z,17.25
2022-08-30T03:27:05.207Z,17.20
2022-08-30T03:28:07.147Z,17.32
2022-08-30T03:29:08.707Z,17.32
2022-08-30T03:30:13.326Z,17.31
2022-08-30T03:31:14.913Z,17.25
2022-08-30T03:32:16.828Z,17.25
2022-08-30T03:33:18.728Z,17.23
2022-08-30T03:34:25.256Z,16.99
2022-08-30T03:35:27.571Z,17.17
2022-08-30T03:36:34.826Z,17.09
2022-08-30T03:37:36.512Z,16.91
2022-08-30T03:38:39.167Z,17.06
2022-08-30T03:39:40.940Z,16.91
2022-08-30T03:40:42.835Z,16.95
2022-08-30T03:41:45.789Z,16.97
2022-08-30T03:42:48.713Z,16.95
2022-08-30T03:43:51.501Z,16.81
2022-08-30T03:45:02.197Z,16.92
2022-08-30T03:46:04.669Z,16.79
2022-08-30T03:47:07.255Z,16.68
2022-08-30T03:48:08.850Z,16.83
2022-08-30T03:49:10.379Z,16.83
2022-08-30T03:50:13.559Z,16.79
2022-08-30T03:51:15.108Z,16.58
2022-08-30T03:52:16.602Z,16.69
2022-08-30T03:53:20.263Z,16.71
2022-08-30T03:54:24.198Z,16.55
2022-08-30T03:55:28.077Z,16.67
2022-08-30T03:56:29.708Z,16.68
2022-08-30T03:57:31.335Z,16.69
2022-08-30T03:58:34.419Z,16.62
2022-08-30T03:59:35.961Z,16.72
2022-08-30T04:00:37.720Z,16.65
2022-08-30T04:01:39.735Z,16.69
2022-08-30T04:02:41.869Z,16.40
2022-08-30T04:03:43.720Z,16.47
2022-08-30T04:04:45.300Z,16.61
2022-08-30T04:05:46.873Z,16.63
2022-08-30T04:06:49.275Z,16.60
2022-08-30T04:07:50.899Z,16.62
2022-08-30T04:08:52.487Z,16.68
2022-08-30T04:09:54.067Z,16.78
2022-08-30T04:10:56.168Z,16.87
2022-08-30T04:11:57.740Z,16.74
2022-08-30T04:12:59.287Z,16.92
2022-08-30T04:14:00.974Z,16.98
2022-08-30T04:15:03.370Z,16.90
2022-08-30T04:16:05.223Z,17.03
2022-08-30T04:17:06.829Z,17.08
2022-08-30T04:18:08.569Z,17.03
2022-08-30T04:19:10.583Z,17.16
2022-08-30T04:20:12.341Z,16.99
2022-08-30T04:21:15.619Z,17.19
2022-08-30T04:22:17.572Z,17.15
2022-08-30T04:23:19.843Z,17.36
2022-08-30T04:24:21.391Z,17.47
2022-08-30T04:25:23.412Z,17.57
2022-08-30T04:26:29.178Z,17.62
2022-08-30T04:27:31.344Z,17.69
2022-08-30T04:28:35.068Z,17.72
2022-08-30T04:29:36.673Z,17.61
2022-08-30T04:30:43.193Z,17.70
2022-08-30T04:31:45.409Z,17.81
2022-08-30T04:32:47.231Z,18.01
2022-08-30T04:33:49.238Z,17.95
2022-08-30T04:34:50.967Z,18.04
2022-08-30T04:35:52.930Z,17.96
2022-08-30T04:36:55.719Z,18.01
2022-08-30T04:37:59.136Z,17.93
2022-08-30T04:39:00.671Z,18.04
2022-08-30T04:40:02.562Z,18.02
2022-08-30T04:41:09.884Z,18.03
2022-08-30T04:42:11.448Z,17.96
2022-08-30T04:43:13.077Z,18.04
2022-08-30T04:44:17.847Z,18.05
2022-08-30T04:45:22.456Z,18.10
2022-08-30T04:46:24.004Z,18.15
2022-08-30T04:47:25.894Z,18.12
2022-08-30T04:48:27.392Z,18.03
2022-08-30T04:49:29.043Z,18.14
2022-08-30T04:50:31.086Z,18.14
2022-08-30T04:51:32.611Z,18.11
2022-08-30T04:52:34.106Z,18.08
2022-08-30T04:53:36.385Z,18.04
2022-08-30T04:54:38.522Z,17.97
2022-08-30T04:55:42.914Z,17.89
2022-08-30T04:56:44.506Z,17.93
2022-08-30T04:57:46.077Z,17.93
2022-08-30T04:58:49.540Z,17.90
2022-08-30T04:59:51.108Z,17.86
2022-08-30T05:00:53.411Z,17.65
2022-08-30T05:01:55.201Z,17.49
2022-08-30T05:02:57.050Z,17.73
2022-08-30T05:03:59.576Z,17.70
2022-08-30T05:05:20.746Z,17.69
2022-08-30T05:06:23.927Z,17.40
2022-08-30T05:07:25.451Z,17.62
2022-08-30T05:08:26.990Z,17.73
2022-08-30T05:09:28.567Z,17.46
2022-08-30T05:10:30.284Z,17.71
2022-08-30T05:11:31.914Z,17.82
2022-08-30T05:12:33.465Z,17.92
2022-08-30T05:13:37.071Z,17.89
2022-08-30T05:14:38.609Z,17.97
2022-08-30T05:15:40.687Z,18.12
2022-08-30T05:16:42.564Z,18.12
2022-08-30T05:17:44.138Z,18.16
2022-08-30T05:18:48.082Z,18.38
2022-08-30T05:19:50.086Z,18.51
2022-08-30T05:21:09.852Z,18.55
2022-08-30T05:22:11.984Z,18.56
2022-08-30T05:23:13.677Z,18.64
2022-08-30T05:24:15.277Z,18.83
2022-08-30T05:25:23.560Z,18.70
2022-08-30T05:26:28.122Z,18.86
2022-08-30T05:27:29.615Z,18.90
2022-08-30T05:28:31.177Z,18.82
2022-08-30T05:29:33.488Z,18.99
2022-08-30T05:30:37.123Z,19.18
2022-08-30T05:31:38.697Z,19.22
2022-08-30T05:32:40.549Z,19.26
2022-08-30T05:33:43.225Z,19.01
2022-08-30T05:34:45.055Z,19.14
2022-08-30T05:35:46.615Z,19.35
2022-08-30T05:36:48.172Z,19.26
2022-08-30T05:37:50.420Z,19.35
2022-08-30T05:38:52.345Z,19.32
2022-08-30T05:39:53.959Z,19.40
2022-08-30T05:40:55.498Z,19.22
2022-08-30T05:41:57.997Z,19.49
2022-08-30T05:43:00.358Z,19.40
2022-08-30T05:44:02.958Z,19.47
2022-08-30T05:45:05.799Z,19.48
2022-08-30T05:46:10.537Z,19.40
2022-08-30T05:47:12.157Z,19.66
2022-08-30T05:48:13.751Z,19.68
2022-08-30T05:49:16.109Z,19.67
2022-08-30T05:50:17.770Z,19.67
2022-08-30T05:51:22.785Z,19.61
2022-08-30T05:52:24.301Z,19.73
2022-08-30T05:53:25.965Z,19.68
2022-08-30T05:54:27.498Z,19.55
2022-08-30T05:55:29.044Z,19.79
2022-08-30T05:56:33.805Z,19.80
2022-08-30T05:57:37.750Z,19.83
2022-08-30T05:58:42.460Z,19.86
2022-08-30T05:59:44.351Z,19.87
2022-08-30T06:00:45.969Z,19.98
2022-08-30T06:01:48.279Z,19.87
2022-08-30T06:02:53.968Z,20.12
2022-08-30T06:04:01.590Z,20.18
2022-08-30T06:05:08.321Z,20.28
2022-08-30T06:06:09.828Z,20.42
2022-08-30T06:07:13.193Z,20.50
2022-08-30T06:08:17.075Z,20.57
2022-08-30T06:09:19.954Z,20.71
2022-08-30T06:10:21.759Z,20.87
2022-08-30T06:11:25.262Z,20.91
2022-08-30T06:12:27.975Z,20.88
2022-08-30T06:13:32.287Z,21.11
2022-08-30T06:14:34.368Z,21.23
2022-08-30T06:15:37.102Z,21.25
2022-08-30T06:16:40.138Z,21.44
2022-08-30T06:17:41.699Z,21.48
2022-08-30T06:18:43.353Z,21.58
2022-08-30T06:19:44.900Z,21.68
2022-08-30T06:20:51.144Z,21.87
2022-08-30T06:21:52.655Z,21.99
2022-08-30T06:22:54.569Z,22.40
2022-08-30T06:23:58.376Z,22.40
2022-08-30T06:24:59.988Z,22.55
2022-08-30T06:26:07.977Z,22.75
2022-08-30T06:27:10.987Z,22.89
2022-08-30T06:28:13.041Z,23.18
2022-08-30T06:29:18.140Z,23.24
2022-08-30T06:30:19.767Z,23.55
2022-08-30T06:31:23.850Z,23.82
2022-08-30T06:32:25.760Z,24.09
2022-08-30T06:33:27.576Z,24.56
2022-08-30T06:34:29.576Z,25.00
2022-08-30T06:35:37.969Z,25.37
2022-08-30T06:36:44.153Z,26.01
2022-08-30T06:37:45.661Z,26.53
2022-08-30T06:38:50.381Z,26.60
2022-08-30T06:39:52.100Z,27.39
2022-08-30T06:40:53.639Z,28.01
2022-08-30T06:41:55.735Z,28.36
2022-08-30T06:42:57.387Z,28.62
2022-08-30T06:44:02.110Z,28.93
2022-08-30T06:45:11.091Z,29.00
2022-08-30T06:46:16.347Z,29.00
2022-08-30T06:47:17.982Z,28.80
2022-08-30T06:48:19.524Z,28.67
2022-08-30T06:49:22.611Z,28.67
2022-08-30T06:50:25.297Z,28.65
2022-08-30T06:51:34.461Z,28.87
2022-08-30T06:52:36.652Z,29.02
2022-08-30T06:53:38.413Z,29.30
2022-08-30T06:54:42.278Z,29.68
2022-08-30T06:55:43.786Z,29.82
2022-08-30T06:56:58.231Z,29.53
2022-08-30T06:58:01.030Z,29.49
2022-08-30T06:59:02.612Z,29.40
2022-08-30T07:00:06.713Z,29.82
2022-08-30T07:01:12.904Z,30.25
2022-08-30T07:02:14.631Z,30.30
2022-08-30T07:03:16.314Z,30.04
2022-08-30T07:04:18.007Z,30.13
2022-08-30T07:05:22.902Z,30.31
2022-08-30T07:06:27.270Z,30.25
2022-08-30T07:07:28.888Z,30.20
2022-08-30T07:08:30.894Z,30.32
2022-08-30T07:10:34.065Z,29.57
2022-08-30T07:11:37.603Z,29.83
2022-08-30T07:12:39.130Z,29.79
2022-08-30T07:13:40.708Z,30.08
2022-08-30T07:14:43.100Z,30.61
2022-08-30T07:15:45.642Z,30.51
2022-08-30T07:16:47.390Z,30.08
2022-08-30T07:18:11.868Z,29.93
2022-08-30T07:19:18.579Z,29.63
2022-08-30T07:20:23.153Z,30.02
2022-08-30T07:21:35.266Z,30.49
2022-08-30T07:22:36.920Z,30.61
2022-08-30T07:23:38.722Z,30.68
2022-08-30T07:24:40.851Z,30.84
2022-08-30T07:25:42.441Z,30.68
2022-08-30T07:26:48.939Z,30.73
2022-08-30T07:27:52.045Z,30.83
2022-08-30T07:28:55.894Z,31.12
2022-08-30T07:29:58.884Z,31.50
2022-08-30T07:31:01.225Z,31.83
2022-08-30T07:32:03.569Z,31.08
2022-08-30T07:33:05.189Z,30.90
2022-08-30T07:34:08.170Z,30.86
2022-08-30T07:35:10.372Z,30.87
2022-08-30T07:36:12.737Z,31.26
2022-08-30T07:37:18.083Z,31.27
2022-08-30T07:38:19.914Z,31.88
2022-08-30T07:39:21.595Z,31.84
2022-08-30T07:40:23.409Z,31.62
2022-08-30T07:41:30.527Z,31.37
2022-08-30T07:42:32.086Z,31.40
2022-08-30T07:43:37.901Z,32.07
2022-08-30T07:44:39.578Z,32.38
2022-08-30T07:45:41.646Z,32.35
2022-08-30T07:46:43.653Z,32.38
2022-08-30T07:47:45.694Z,32.49
2022-08-30T07:48:47.585Z,33.03
2022-08-30T07:49:49.095Z,33.42
2022-08-30T07:50:53.728Z,33.49
2022-08-30T07:51:58.733Z,33.14
2022-08-30T07:53:00.278Z,33.05
2022-08-30T07:54:01.809Z,32.82
2022-08-30T07:55:04.275Z,32.56
2022-08-30T07:56:06.173Z,32.72
2022-08-30T07:57:08.005Z,32.59
2022-08-30T07:58:09.573Z,32.27
2022-08-30T07:59:11.178Z,32.05
2022-08-30T08:00:13.363Z,32.10
2022-08-30T08:01:16.006Z,32.31
2022-08-30T08:02:18.486Z,31.74
2022-08-30T08:03:20.151Z,31.61
2022-08-30T08:04:21.824Z,31.80
2022-08-30T08:05:24.918Z,32.03
2022-08-30T08:06:27.640Z,31.95
2022-08-30T08:07:35.539Z,31.90
2022-08-30T08:08:38.192Z,32.17
2022-08-30T08:09:39.719Z,32.34
2022-08-30T08:10:42.228Z,32.17
2022-08-30T08:11:43.992Z,32.11
2022-08-30T08:12:45.568Z,32.08
2022-08-30T08:13:54.197Z,32.48
2022-08-30T08:14:56.020Z,32.33
2022-08-30T08:15:57.652Z,32.76
2022-08-30T08:16:59.754Z,32.97
2022-08-30T08:18:01.363Z,32.86
2022-08-30T08:19:04.535Z,32.79
2022-08-30T08:20:06.656Z,32.74
2022-08-30T08:21:08.310Z,32.87
2022-08-30T08:22:20.609Z,32.94
2022-08-30T08:23:22.744Z,33.24
2022-08-30T08:24:24.417Z,33.42
2022-08-30T08:25:27.115Z,33.72
2022-08-30T08:26:28.877Z,33.45
2022-08-30T08:27:31.009Z,33.32
2022-08-30T08:28:32.571Z,33.03
2022-08-30T08:29:34.209Z,32.56
2022-08-30T08:30:37.601Z,32.52
2022-08-30T08:31:41.310Z,32.27
2022-08-30T08:32:42.917Z,32.52
2022-08-30T08:33:44.923Z,32.82
2022-08-30T08:34:46.562Z,33.21
2022-08-30T08:35:48.218Z,33.30
2022-08-30T08:36:50.929Z,33.69
2022-08-30T08:37:53.368Z,33.51
2022-08-30T08:38:54.900Z,33.91
2022-08-30T08:39:56.410Z,33.55
2022-08-30T08:41:23.000Z,33.71
2022-08-30T08:42:48.736Z,33.64
2022-08-30T08:43:50.336Z,33.81
2022-08-30T08:45:03.788Z,34.12
2022-08-30T08:46:25.436Z,34.39
2022-08-30T08:47:51.594Z,34.11
2022-08-30T08:49:00.832Z,33.73
2022-08-30T08:50:07.352Z,33.60
2022-08-30T08:51:34.245Z,34.04
2022-08-30T08:53:46.421Z,33.95
2022-08-30T08:54:56.235Z,34.45
2022-08-30T08:56:03.304Z,34.37
2022-08-30T08:57:05.022Z,34.36
2022-08-30T08:58:06.593Z,34.26
2022-08-30T08:59:10.058Z,34.13
2022-08-30T09:00:13.834Z,34.42
2022-08-30T09:01:18.280Z,34.39
2022-08-30T09:02:26.357Z,34.97
2022-08-30T09:03:29.309Z,35.33
2022-08-30T09:04:35.895Z,35.20
2022-08-30T09:05:40.636Z,34.88
2022-08-30T09:06:50.911Z,34.59
2022-08-30T09:07:58.737Z,35.04
2022-08-30T09:09:02.074Z,34.90
2022-08-30T09:10:05.558Z,35.10
2022-08-30T09:11:17.504Z,35.64
2022-08-30T09:12:22.409Z,35.34
2022-08-30T09:13:25.088Z,35.20
2022-08-30T09:14:32.979Z,34.97
2022-08-30T09:15:35.439Z,34.85
2022-08-30T09:16:51.168Z,35.51
2022-08-30T09:17:55.420Z,36.02
2022-08-30T09:18:56.978Z,35.60
2022-08-30T09:20:00.459Z,35.44
2022-08-30T09:21:07.085Z,35.55
2022-08-30T09:22:35.322Z,36.18
2022-08-30T09:23:36.926Z,36.25
2022-08-30T09:24:48.026Z,36.30
2022-08-30T09:25:57.227Z,36.36
2022-08-30T09:27:14.749Z,36.40
2022-08-30T09:28:23.719Z,36.41
2022-08-30T09:29:26.599Z,36.40
2022-08-30T09:30:30.087Z,36.20
2022-08-30T09:31:33.776Z,36.27
2022-08-30T09:32:39.961Z,37.05
2022-08-30T09:33:41.492Z,37.18
2022-08-30T09:34:43.750Z,37.72
2022-08-30T09:35:49.377Z,37.90
2022-08-30T09:36:53.769Z,38.09
2022-08-30T09:38:03.324Z,37.87
2022-08-30T09:39:13.801Z,37.43
2022-08-30T09:40:24.766Z,36.88
2022-08-30T09:41:33.927Z,36.94
2022-08-30T09:42:35.922Z,36.44
2022-08-30T09:43:37.602Z,36.53
2022-08-30T09:44:40.316Z,36.68
2022-08-30T09:45:47.121Z,36.73
2022-08-30T09:46:56.854Z,36.14
2022-08-30T09:47:58.551Z,36.32
2022-08-30T09:49:00.113Z,36.25
2022-08-30T09:50:12.919Z,36.73
2022-08-30T09:51:23.836Z,36.34
2022-08-30T09:54:35.906Z,35.29
2022-08-30T09:55:51.569Z,35.78
2022-08-30T09:56:56.777Z,36.38
2022-08-30T09:58:26.773Z,36.78
2022-08-30T09:59:39.893Z,37.53
2022-08-30T10:00:55.314Z,37.56
2022-08-30T10:02:16.543Z,36.94
2022-08-30T10:03:40.593Z,37.29
2022-08-30T10:05:08.471Z,37.74
2022-08-30T10:06:15.069Z,38.68
2022-08-30T10:07:46.177Z,39.48
2022-08-30T10:09:23.380Z,39.91
2022-08-30T10:11:00.943Z,40.52
2022-08-30T10:12:02.412Z,39.79
2022-08-30T10:13:28.640Z,39.48
2022-08-30T10:14:30.150Z,37.91
2022-08-30T10:16:26.224Z,38.15
2022-08-30T10:17:56.526Z,38.74
2022-08-30T10:19:25.620Z,38.02
2022-08-30T10:20:36.630Z,37.43
2022-08-30T10:22:03.227Z,38.14
2022-08-30T10:23:26.724Z,38.50
2022-08-30T10:24:35.690Z,38.62
2022-08-30T10:25:44.013Z,39.09
2022-08-30T10:26:50.151Z,39.25
2022-08-30T10:28:10.478Z,38.64
2022-08-30T10:29:25.429Z,38.99
2022-08-30T10:30:29.183Z,38.83
2022-08-30T10:31:41.794Z,38.89
2022-08-30T10:33:05.086Z,39.51
2022-08-30T10:34:17.985Z,40.20
2022-08-30T10:35:34.074Z,40.03
2022-08-30T10:36:48.548Z,39.59
2022-08-30T10:38:02.769Z,39.41
2022-08-30T10:39:07.633Z,39.50
2022-08-30T10:40:37.586Z,39.81
2022-08-30T10:42:08.626Z,40.04
2022-08-30T10:43:22.131Z,39.92
2022-08-30T10:44:29.213Z,39.80
2022-08-30T10:45:35.808Z,39.90
2022-08-30T10:46:58.060Z,39.34
2022-08-30T10:48:19.873Z,39.15
2022-08-30T10:49:23.634Z,38.90
2022-08-30T10:50:41.630Z,38.51
2022-08-30T10:52:05.107Z,37.99
2022-08-30T10:53:15.356Z,37.78
2022-08-30T10:54:23.500Z,37.84
2022-08-30T10:55:36.212Z,37.96
2022-08-30T10:56:42.932Z,37.51
2022-08-30T10:57:45.313Z,37.01
2022-08-30T10:58:48.014Z,36.81
2022-08-30T10:59:58.418Z,36.36
2022-08-30T11:01:17.643Z,36.40
2022-08-30T11:02:27.396Z,36.45
2022-08-30T11:03:28.855Z,36.34
2022-08-30T11:04:33.612Z,35.85
2022-08-30T11:06:00.097Z,35.47
2022-08-30T11:07:37.933Z,35.30
2022-08-30T11:09:09.682Z,35.15
2022-08-30T11:10:39.405Z,35.05
2022-08-30T11:11:57.349Z,35.16
2022-08-30T11:13:12.609Z,35.65
2022-08-30T11:14:17.433Z,36.17
2022-08-30T11:15:25.757Z,36.50
2022-08-30T11:16:40.368Z,37.23
2022-08-30T11:17:54.799Z,37.39
2022-08-30T11:18:58.389Z,37.17
2022-08-30T11:20:02.977Z,37.40
2022-08-30T11:21:23.256Z,37.42
2022-08-30T11:22:27.760Z,37.20
2022-08-30T11:23:33.180Z,37.00
2022-08-30T11:24:57.658Z,35.95
2022-08-30T11:26:15.938Z,35.40
2022-08-30T11:27:53.706Z,35.38
2022-08-30T11:28:58.120Z,34.75
2022-08-30T11:30:26.722Z,34.80
2022-08-30T11:31:39.163Z,34.51
2022-08-30T11:33:18.048Z,34.72
2022-08-30T11:34:45.489Z,33.79
2022-08-30T11:35:49.988Z,33.69
2022-08-30T11:37:00.201Z,33.65
2022-08-30T11:38:16.902Z,33.95
2022-08-30T11:39:54.798Z,34.17
2022-08-30T11:40:56.295Z,34.04
2022-08-30T11:42:34.341Z,33.71
2022-08-30T11:43:37.253Z,33.70
2022-08-30T11:44:38.891Z,33.76
2022-08-30T11:45:43.542Z,34.05
2022-08-30T11:46:45.404Z,34.29
2022-08-30T11:47:55.648Z,34.67
2022-08-30T11:49:15.683Z,34.96
2022-08-30T11:50:23.212Z,35.81
2022-08-30T11:51:37.009Z,36.33
2022-08-30T11:53:05.742Z,36.58
2022-08-30T11:54:26.657Z,35.92
2022-08-30T11:55:37.230Z,35.97
2022-08-30T11:56:54.606Z,35.62
2022-08-30T11:58:44.081Z,35.71
2022-08-30T12:00:09.994Z,35.95
2022-08-30T12:01:49.997Z,35.57
2022-08-30T12:03:03.801Z,35.78
2022-08-30T12:04:25.339Z,36.04
2022-08-30T12:05:38.170Z,36.57
2022-08-30T12:06:43.099Z,36.77
2022-08-30T12:08:03.337Z,36.92
2022-08-30T12:09:05.672Z,37.18
2022-08-30T12:10:23.504Z,37.73
2022-08-30T12:11:32.024Z,38.27
2022-08-30T12:12:47.629Z,37.84
2022-08-30T12:13:49.273Z,37.68
2022-08-30T12:14:54.948Z,37.64
2022-08-30T12:16:11.585Z,38.14
2022-08-30T12:17:40.051Z,38.25
2022-08-30T12:18:50.674Z,38.66
2022-08-30T12:19:52.861Z,38.37
2022-08-30T12:20:58.966Z,38.71
2022-08-30T12:22:06.028Z,38.86
2022-08-30T12:23:30.080Z,38.69
2022-08-30T12:24:43.522Z,39.36
2022-08-30T12:25:46.590Z,39.80
2022-08-30T12:26:51.311Z,39.36
2022-08-30T12:28:12.800Z,38.57
2022-08-30T12:29:22.431Z,38.44
2022-08-30T12:30:28.115Z,38.25
2022-08-30T12:31:29.910Z,37.96
2022-08-30T12:32:32.491Z,37.25
2022-08-30T12:33:42.669Z,37.37
2022-08-30T12:34:54.839Z,37.27
2022-08-30T12:35:59.546Z,37.46
2022-08-30T12:37:11.370Z,37.72
2022-08-30T12:38:22.352Z,38.29
2022-08-30T12:39:41.474Z,38.12
2022-08-30T12:40:55.949Z,38.47
2022-08-30T12:42:17.694Z,38.12
2022-08-30T12:43:27.324Z,38.21
2022-08-30T12:44:41.287Z,37.56
2022-08-30T12:45:50.740Z,36.97
2022-08-30T12:46:59.725Z,36.21
2022-08-30T12:48:08.369Z,35.74
2022-08-30T12:49:16.032Z,35.23
2022-08-30T12:50:33.982Z,34.73
2022-08-30T12:51:41.516Z,34.51
2022-08-30T12:52:46.449Z,34.67
2022-08-30T12:53:51.389Z,35.03
2022-08-30T12:54:55.110Z,35.36
2022-08-30T12:56:02.162Z,35.17
2022-08-30T12:57:34.862Z,35.38
2022-08-30T12:58:35.625Z,34.59
2022-08-30T12:59:52.954Z,34.40
2022-08-30T13:01:32.284Z,34.13
2022-08-30T13:03:01.483Z,33.39
2022-08-30T13:04:15.711Z,33.21
2022-08-30T13:05:48.017Z,32.90
2022-08-30T13:06:58.306Z,32.69
2022-08-30T13:08:14.255Z,32.52
2022-08-30T13:09:32.401Z,33.03
2022-08-30T13:10:34.726Z,33.72
2022-08-30T13:11:36.492Z,34.58
2022-08-30T13:12:40.221Z,35.16
2022-08-30T13:13:45.664Z,35.60
2022-08-30T13:15:16.987Z,36.29
2022-08-30T13:16:20.544Z,36.87
2022-08-30T13:17:27.660Z,37.13
2022-08-30T13:18:32.655Z,37.79
2022-08-30T13:19:41.092Z,37.97
2022-08-30T13:20:42.666Z,38.18
2022-08-30T13:21:54.386Z,38.40
2022-08-30T13:23:09.198Z,38.71
2022-08-30T13:24:10.750Z,38.44
2022-08-30T13:25:12.306Z,38.33
2022-08-30T13:26:14.180Z,38.38
2022-08-30T13:27:24.388Z,38.28
2022-08-30T13:28:25.867Z,38.15
2022-08-30T13:29:28.884Z,37.91
2022-08-30T13:30:31.506Z,37.90
2022-08-30T13:31:33.511Z,38.06
2022-08-30T13:32:38.982Z,37.51
2022-08-30T13:33:40.786Z,37.06
2022-08-30T13:34:43.459Z,36.68
2022-08-30T13:35:45.277Z,36.14
2022-08-30T13:36:50.184Z,35.71
2022-08-30T13:37:52.200Z,35.24
2022-08-30T13:38:54.590Z,35.08
2022-08-30T13:39:59.203Z,34.71
2022-08-30T13:41:04.053Z,34.37
2022-08-30T13:43:27.588Z,33.58
2022-08-30T13:44:29.741Z,33.80
2022-08-30T13:45:47.140Z,33.91
2022-08-30T13:46:55.252Z,33.92
2022-08-30T13:47:57.499Z,33.69
2022-08-30T13:49:04.894Z,33.30
2022-08-30T13:50:07.586Z,33.49
2022-08-30T13:51:11.320Z,33.70
2022-08-30T13:52:22.957Z,34.08
2022-08-30T13:54:46.371Z,33.51
2022-08-30T13:55:52.276Z,33.15
2022-08-30T13:56:55.019Z,33.17
2022-08-30T13:57:57.458Z,33.35
2022-08-30T13:59:03.020Z,33.67
2022-08-30T14:00:09.608Z,34.02
2022-08-30T14:01:11.324Z,34.16
2022-08-30T14:02:14.670Z,34.40
2022-08-30T14:03:16.627Z,34.40
2022-08-30T14:04:18.339Z,34.64
2022-08-30T14:05:47.187Z,35.21
2022-08-30T14:08:04.976Z,35.78
2022-08-30T14:09:07.812Z,35.86
2022-08-30T14:11:34.590Z,36.59
2022-08-30T14:13:38.973Z,37.06
2022-08-30T14:15:02.837Z,36.48
2022-08-30T14:17:30.858Z,35.14
2022-08-30T14:18:32.508Z,35.63
2022-08-30T14:19:34.159Z,36.03
2022-08-30T14:20:38.763Z,36.16
2022-08-30T14:21:42.038Z,36.06
2022-08-30T14:22:44.786Z,35.82